Terminal Aerodrome Forecast
Issued by NWS Greer, SC

Home | Current Version | Previous Version | Text Only | Print | Product List | Glossary On
Versions: 1 2 3 4 5 6 7 8 9 10 11 12 13 14 15 16 17 18 19 20 21 22 23 24 25 26 27 28 29 30 31 32 33 34 35 36 37 38 39 40 41 42 43 44 45 46
000
FTUS42 KGSP 220840 AAC
TAFAVL
TAF AMD
KAVL 220840Z 2209/2306 13004KT 3SM -DZ BR OVC006
      TEMPO 2209/2212 2SM BR OVC004
     FM221300 12004KT 5SM BR OVC008
     FM221900 13005KT P6SM OVC012
     FM230100 13004KT 5SM -DZ BR OVC007=

USA.gov is the U.S. government's official web portal to all federal, state and local government web resources and services.